Time;durP1;ratioP1;P1;durP2;ratioP2;P2;SDS_P1;SDS_P2;PMS_P1;PMS_P2;Temp;Humidity;BMP_temperature;BMP_pressure;BME280_temperature;BME280_humidity;BME280_pressure;Samples;Min_cycle;Max_cycle;Signal;HPM_P1;HPM_P2
2023/03/17 00:01:36;;;;;;;1.67;1.00;;;;;;;2.80;82.20;100623.30;1736922;82;21074;-59
2023/03/17 00:04:08;;;;;;;2.47;1.15;;;;;;;2.77;82.17;100620.39;1737006;82;21019;-59
2023/03/17 00:06:38;;;;;;;2.25;1.07;;;;;;;2.77;82.22;100620.39;1737097;82;21015;-59
2023/03/17 00:09:13;;;;;;;2.72;1.20;;;;;;;2.81;82.20;100621.81;1716827;82;21047;-59
2023/03/17 00:11:43;;;;;;;2.35;1.10;;;;;;;2.82;82.05;100622.66;1737029;82;21499;-59
2023/03/17 00:14:14;;;;;;;2.92;1.17;;;;;;;2.84;81.94;100626.09;1736908;82;21067;-58
2023/03/17 00:16:49;;;;;;;3.77;1.30;;;;;;;2.86;81.63;100629.00;1736794;82;21051;-58
2023/03/17 00:19:31;;;;;;;3.08;1.20;;;;;;;2.84;81.49;100624.23;1736841;82;21074;-58
2023/03/17 00:22:02;;;;;;;1.65;0.90;;;;;;;2.85;81.51;100632.70;1736810;82;21451;-59
2023/03/17 00:24:31;;;;;;;1.50;1.10;;;;;;;2.88;81.23;100632.06;1737002;82;21102;-60
2023/03/17 00:27:06;;;;;;;2.37;0.90;;;;;;;2.87;80.94;100639.33;1737035;82;21458;-58
2023/03/17 00:29:36;;;;;;;2.02;0.98;;;;;;;2.85;80.81;100635.41;1736779;82;21059;-60
2023/03/17 00:32:08;;;;;;;3.25;1.00;;;;;;;2.81;80.57;100631.78;1736957;82;21031;-58
2023/03/17 00:34:39;;;;;;;3.40;1.30;;;;;;;2.75;80.53;100634.56;1731648;82;21048;-58
2023/03/17 00:37:12;;;;;;;2.52;0.85;;;;;;;2.73;80.62;100641.96;1734747;83;21150;-58
2023/03/17 00:39:41;;;;;;;2.52;0.90;;;;;;;2.74;80.76;100633.34;1734704;83;20988;-59
2023/03/17 00:42:10;;;;;;;1.90;1.10;;;;;;;2.76;80.75;100634.06;1734721;82;21083;-58
2023/03/17 00:44:40;;;;;;;1.25;0.80;;;;;;;2.77;80.67;100639.33;1734673;83;21062;-57
2023/03/17 00:47:10;;;;;;;3.08;1.22;;;;;;;2.76;80.31;100636.77;1734950;83;21503;-58
2023/03/17 00:49:40;;;;;;;2.20;0.90;;;;;;;2.78;80.25;100638.83;1734718;83;21024;-58
2023/03/17 00:52:13;;;;;;;2.83;0.80;;;;;;;2.77;80.25;100635.27;1734697;83;21067;-59
2023/03/17 00:54:42;;;;;;;2.25;1.20;;;;;;;2.80;79.99;100629.58;1734868;82;21020;-60
2023/03/17 00:57:11;;;;;;;2.12;0.80;;;;;;;2.79;79.83;100634.63;1734757;83;21443;-59
2023/03/17 00:59:41;;;;;;;1.82;0.98;;;;;;;2.75;79.54;100641.33;1734728;83;21047;-58
2023/03/17 01:02:12;;;;;;;2.08;0.93;;;;;;;2.73;79.68;100637.91;1734747;83;21127;-59
2023/03/17 01:04:44;;;;;;;1.87;0.85;;;;;;;2.75;79.63;100635.91;1734836;83;21027;-58
2023/03/17 01:07:15;;;;;;;2.85;0.75;;;;;;;2.73;79.47;100635.20;1733968;82;21550;-58
2023/03/17 01:09:47;;;;;;;2.08;1.00;;;;;;;2.72;79.37;100642.95;1740057;82;21003;-58
2023/03/17 01:12:19;;;;;;;2.27;1.07;;;;;;;2.71;79.29;100639.89;1734917;83;21023;-58
2023/03/17 01:14:50;;;;;;;2.37;0.82;;;;;;;2.73;79.17;100643.81;1734863;83;21043;-59
2023/03/17 01:17:19;;;;;;;2.17;1.10;;;;;;;2.73;79.14;100643.81;1734726;82;21459;-59
2023/03/17 01:19:49;;;;;;;2.35;0.90;;;;;;;2.72;79.06;100647.52;1734462;83;21392;-59
2023/03/17 01:22:19;;;;;;;1.67;0.80;;;;;;;2.74;79.17;100657.70;1734703;83;21436;-59
2023/03/17 01:24:48;;;;;;;2.37;0.90;;;;;;;2.74;79.01;100651.79;1734702;83;21340;-58
2023/03/17 01:27:18;;;;;;;1.67;0.80;;;;;;;2.74;79.01;100654.98;1734764;82;21039;-58
2023/03/17 01:29:50;;;;;;;1.85;0.82;;;;;;;2.75;78.93;100662.97;1734744;83;21491;-59
2023/03/17 01:32:21;;;;;;;2.85;0.80;;;;;;;2.76;78.87;100651.65;1716626;83;21043;-58
2023/03/17 01:34:51;;;;;;;4.33;0.90;;;;;;;2.76;78.51;100649.80;1686174;83;21049;-58
2023/03/17 01:37:22;;;;;;;2.15;0.80;;;;;;;2.78;78.47;100648.30;1682697;85;21033;-58
2023/03/17 01:39:53;;;;;;;1.77;0.70;;;;;;;2.79;78.42;100649.52;1682678;84;21076;-58
2023/03/17 01:42:24;;;;;;;2.17;0.80;;;;;;;2.79;78.38;100647.30;1682507;84;21092;-59
2023/03/17 01:44:59;;;;;;;1.67;0.70;;;;;;;2.78;78.33;100655.92;1682733;84;21049;-59
2023/03/17 01:47:31;;;;;;;1.67;0.70;;;;;;;2.78;78.39;100655.06;1682554;84;21029;-58
2023/03/17 01:50:07;;;;;;;2.42;0.90;;;;;;;2.80;78.40;100662.54;1682478;85;21097;-59
2023/03/17 01:52:39;;;;;;;1.25;0.45;;;;;;;2.76;78.24;100659.27;1684616;85;21069;-58
2023/03/17 01:55:12;;;;;;;2.40;1.00;;;;;;;2.76;78.25;100659.77;1697851;84;21032;-58
2023/03/17 01:57:52;;;;;;;2.77;0.70;;;;;;;2.77;78.22;100671.80;1686790;85;21041;-59
2023/03/17 02:00:23;;;;;;;3.45;0.85;;;;;;;2.76;78.04;100664.67;1686671;85;21068;-59
2023/03/17 02:02:55;;;;;;;2.08;0.80;;;;;;;2.76;77.97;100669.23;1684426;85;21057;-58
2023/03/17 02:05:29;;;;;;;2.12;0.68;;;;;;;2.74;77.98;100668.02;1682637;84;21077;-58
2023/03/17 02:07:59;;;;;;;1.40;0.62;;;;;;;2.73;78.03;100669.02;1682593;84;21515;-59
2023/03/17 02:10:32;;;;;;;1.52;0.68;;;;;;;2.73;78.05;100666.81;1682626;84;21515;-57
2023/03/17 02:13:04;;;;;;;1.65;0.90;;;;;;;2.74;78.05;100668.52;1682840;84;21065;-59
2023/03/17 02:15:48;;;;;;;2.55;0.88;;;;;;;2.73;78.00;100678.48;1693731;83;21092;-59
2023/03/17 02:18:20;;;;;;;1.40;0.70;;;;;;;2.73;78.04;100670.38;1682591;85;21057;-59
2023/03/17 02:21:01;;;;;;;2.22;0.53;;;;;;;2.75;77.88;100680.55;1682597;84;21027;-59
2023/03/17 02:23:32;;;;;;;1.42;0.80;;;;;;;2.75;77.71;100677.84;1682683;84;21041;-58
2023/03/17 02:26:02;;;;;;;2.27;1.00;;;;;;;2.74;77.67;100685.61;1682899;84;21073;-59
2023/03/17 02:28:34;;;;;;;1.10;0.70;;;;;;;2.74;77.75;100684.75;1682720;84;21080;-58
2023/03/17 02:31:03;;;;;;;1.07;0.88;;;;;;;2.72;77.79;100690.30;1682589;84;21093;-58
2023/03/17 02:33:33;;;;;;;1.52;0.80;;;;;;;2.71;77.67;100687.24;1699043;82;21078;-59
2023/03/17 02:36:04;;;;;;;1.80;0.93;;;;;;;2.68;77.79;100692.94;1746986;82;21039;-58
2023/03/17 02:38:33;;;;;;;1.60;0.80;;;;;;;2.69;77.92;100697.34;1746720;82;21313;-60
2023/03/17 02:41:05;;;;;;;1.37;0.80;;;;;;;2.70;78.01;100704.97;1746719;82;21456;-58
2023/03/17 02:43:36;;;;;;;1.00;0.60;;;;;;;2.71;77.99;100702.13;1750864;82;21423;-57
2023/03/17 02:46:06;;;;;;;2.22;0.80;;;;;;;2.71;78.03;100706.17;1746940;82;21066;-59
2023/03/17 02:48:36;;;;;;;2.67;1.15;;;;;;;2.68;77.96;100714.58;1746742;82;21027;-58
2023/03/17 02:51:06;;;;;;;2.30;0.82;;;;;;;2.64;78.07;100709.08;1746784;82;21031;-58
2023/03/17 02:53:35;;;;;;;1.62;0.70;;;;;;;2.63;78.28;100718.20;1746744;82;21055;-59
2023/03/17 02:56:06;;;;;;;1.45;0.95;;;;;;;2.60;78.34;100710.82;1747011;82;21019;-60
2023/03/17 02:58:35;;;;;;;1.65;0.60;;;;;;;2.62;78.33;100707.02;1746697;82;21541;-59
2023/03/17 03:01:06;;;;;;;1.98;0.80;;;;;;;2.65;78.32;100717.56;1746985;82;21054;-60
2023/03/17 03:03:36;;;;;;;0.93;0.60;;;;;;;2.69;78.17;100721.70;1747043;82;21031;-60
2023/03/17 03:06:06;;;;;;;2.17;0.82;;;;;;;2.68;78.05;100725.89;1746750;82;21015;-58
2023/03/17 03:08:37;;;;;;;2.37;0.93;;;;;;;2.68;78.01;100722.69;1746788;82;21027;-58
2023/03/17 03:11:06;;;;;;;3.25;0.98;;;;;;;2.68;77.78;100712.36;1746710;82;21063;-58
2023/03/17 03:13:36;;;;;;;1.37;0.80;;;;;;;2.67;77.78;100716.92;1746737;82;21006;-58
2023/03/17 03:16:07;;;;;;;1.98;0.90;;;;;;;2.69;77.73;100724.90;1746741;82;21011;-58
2023/03/17 03:18:36;;;;;;;2.00;0.70;;;;;;;2.67;77.65;100716.06;1746576;82;21066;-58
2023/03/17 03:21:07;;;;;;;2.87;0.90;;;;;;;2.66;77.33;100721.98;1746831;82;21078;-59
2023/03/17 03:23:37;;;;;;;0.82;0.53;;;;;;;2.63;77.29;100729.02;1746957;82;21047;-58
2023/03/17 03:26:08;;;;;;;2.47;0.90;;;;;;;2.64;77.34;100728.02;1746837;82;21019;-59
2023/03/17 03:28:38;;;;;;;2.25;0.80;;;;;;;2.65;77.33;100728.37;1747024;82;21046;-59
2023/03/17 03:31:08;;;;;;;1.07;0.53;;;;;;;2.67;77.39;100725.03;1746820;82;21015;-58
2023/03/17 03:33:39;;;;;;;2.12;0.80;;;;;;;2.70;77.40;100732.02;1747263;81;21053;-60
2023/03/17 03:36:08;;;;;;;1.07;0.70;;;;;;;2.73;77.42;100736.66;1747108;82;21015;-60
2023/03/17 03:38:40;;;;;;;2.92;1.07;;;;;;;2.74;77.35;100746.48;1746714;82;21516;-59
2023/03/17 03:41:10;;;;;;;2.70;0.80;;;;;;;2.72;77.23;100739.00;1746823;82;20992;-58
2023/03/17 03:43:39;;;;;;;1.07;0.70;;;;;;;2.70;77.30;100736.94;1747190;82;21014;-59
2023/03/17 03:46:09;;;;;;;1.25;0.57;;;;;;;2.70;77.23;100738.28;1746872;82;21055;-58
2023/03/17 03:48:39;;;;;;;3.65;0.80;;;;;;;2.72;77.31;100743.56;1747072;82;21019;-59
2023/03/17 03:51:07;;;;;;;1.47;0.75;;;;;;;2.74;77.36;100747.84;1747018;82;21055;-56
2023/03/17 03:53:37;;;;;;;2.75;0.85;;;;;;;2.74;77.26;100745.13;1746978;82;21474;-58
2023/03/17 03:56:07;;;;;;;0.90;0.70;;;;;;;2.71;77.24;100745.41;1746681;82;21018;-59
2023/03/17 03:58:36;;;;;;;2.50;0.70;;;;;;;2.69;77.28;100753.30;1746713;82;21035;-59
2023/03/17 04:01:08;;;;;;;1.00;0.70;;;;;;;2.66;77.25;100745.47;1746942;82;21426;-59
2023/03/17 04:03:38;;;;;;;1.45;0.60;;;;;;;2.63;77.22;100757.91;1747062;82;21023;-58
2023/03/17 04:06:07;;;;;;;1.07;0.70;;;;;;;2.64;77.30;100760.98;1746962;82;21469;-58
2023/03/17 04:08:37;;;;;;;1.10;0.72;;;;;;;2.66;77.23;100764.41;1746777;82;21461;-58
2023/03/17 04:11:07;;;;;;;1.87;0.98;;;;;;;2.67;77.27;100762.91;1746985;82;21031;-59
2023/03/17 04:13:37;;;;;;;2.58;1.07;;;;;;;2.67;77.37;100763.41;1746859;82;21047;-57
2023/03/17 04:16:08;;;;;;;1.82;0.90;;;;;;;2.66;77.13;100769.31;1747104;82;21055;-59
2023/03/17 04:18:39;;;;;;;1.40;0.80;;;;;;;2.64;77.27;100765.89;1746813;82;21492;-58
2023/03/17 04:21:09;;;;;;;1.17;0.72;;;;;;;2.65;77.33;100778.92;1746589;82;21419;-58
2023/03/17 04:23:40;;;;;;;1.65;0.78;;;;;;;2.65;77.28;100778.92;1746716;82;21047;-59
2023/03/17 04:26:09;;;;;;;4.08;0.82;;;;;;;2.65;77.32;100778.42;1746841;82;20996;-58
2023/03/17 04:28:39;;;;;;;1.98;0.70;;;;;;;2.65;77.34;100782.48;1750617;82;21475;-58
2023/03/17 04:31:11;;;;;;;1.90;1.00;;;;;;;2.64;77.30;100781.27;1746822;82;21072;-58
2023/03/17 04:33:41;;;;;;;1.60;0.95;;;;;;;2.63;77.42;100791.23;1746669;82;21078;-60
2023/03/17 04:36:18;;;;;;;2.80;1.37;;;;;;;2.65;77.53;100791.95;1746877;82;21055;-59
2023/03/17 04:38:47;;;;;;;1.40;0.90;;;;;;;2.66;77.48;100793.66;1746853;82;21015;-62
2023/03/17 04:41:17;;;;;;;2.60;0.93;;;;;;;2.67;77.57;100795.38;1746859;82;20999;-58
2023/03/17 04:43:46;;;;;;;3.05;0.90;;;;;;;2.70;77.51;100795.10;1746925;82;21010;-59
2023/03/17 04:46:17;;;;;;;1.67;0.90;;;;;;;2.69;77.53;100804.70;1746717;82;21027;-59
2023/03/17 04:48:46;;;;;;;1.82;0.93;;;;;;;2.68;77.46;100810.61;1746756;82;21047;-58
2023/03/17 04:51:16;;;;;;;2.50;0.70;;;;;;;2.69;77.63;100804.20;1747017;82;21528;-59
2023/03/17 04:53:46;;;;;;;3.33;1.20;;;;;;;2.71;77.73;100803.58;1746924;82;21067;-59
2023/03/17 04:56:16;;;;;;;2.42;1.20;;;;;;;2.76;77.85;100813.98;1746840;82;20999;-57
2023/03/17 04:58:46;;;;;;;1.95;1.20;;;;;;;2.77;77.87;100812.99;1746870;82;21486;-60
2023/03/17 05:01:23;;;;;;;2.47;1.15;;;;;;;2.78;77.88;100819.63;1746829;82;21082;-59
2023/03/17 05:03:53;;;;;;;2.60;0.90;;;;;;;2.79;77.78;100816.41;1746972;82;21169;-59
2023/03/17 05:06:23;;;;;;;4.60;1.10;;;;;;;2.79;77.85;100821.33;1746860;82;21026;-60
2023/03/17 05:08:53;;;;;;;2.87;1.15;;;;;;;2.81;77.93;100827.46;1746851;82;21027;-58
2023/03/17 05:11:23;;;;;;;3.30;1.40;;;;;;;2.83;77.90;100828.18;1746943;82;21031;-57
2023/03/17 05:13:54;;;;;;;1.98;1.30;;;;;;;2.81;77.98;100828.81;1747095;82;21050;-59
2023/03/17 05:16:23;;;;;;;2.60;1.27;;;;;;;2.79;78.03;100825.39;1746867;82;21471;-59
2023/03/17 05:18:54;;;;;;;3.75;1.25;;;;;;;2.75;78.10;100823.95;1746919;82;21035;-60
2023/03/17 05:21:24;;;;;;;1.72;1.30;;;;;;;2.74;78.30;100823.59;1746881;82;21516;-59
2023/03/17 05:23:54;;;;;;;1.25;1.00;;;;;;;2.76;78.56;100828.87;1746979;82;21074;-59
2023/03/17 05:26:25;;;;;;;1.42;1.00;;;;;;;2.78;78.60;100842.62;1746970;82;21030;-60
2023/03/17 05:28:56;;;;;;;2.58;1.00;;;;;;;2.80;78.60;100844.69;1747115;82;21521;-60
2023/03/17 05:31:28;;;;;;;3.02;1.42;;;;;;;2.80;78.62;100841.98;1746962;82;21026;-60
2023/03/17 05:33:59;;;;;;;1.37;0.95;;;;;;;2.82;78.85;100845.41;1750319;82;21047;-60
2023/03/17 05:36:28;;;;;;;1.60;1.20;;;;;;;2.80;78.97;100846.05;1714663;83;21035;-60
2023/03/17 05:38:57;;;;;;;2.50;1.40;;;;;;;2.79;79.09;100847.53;1714106;84;21039;-59
2023/03/17 05:41:27;;;;;;;2.77;1.20;;;;;;;2.79;79.26;100851.09;1713825;84;21078;-57
2023/03/17 05:43:58;;;;;;;2.12;0.90;;;;;;;2.79;79.32;100853.80;1716052;83;21063;-58
2023/03/17 05:46:28;;;;;;;1.90;1.20;;;;;;;2.79;79.40;100854.30;1711491;83;21051;-60
2023/03/17 05:49:02;;;;;;;1.92;1.25;;;;;;;2.78;79.53;100857.50;1710880;83;20999;-59
2023/03/17 05:51:32;;;;;;;1.82;1.35;;;;;;;2.77;79.73;100855.79;1710746;84;21066;-60
2023/03/17 05:54:04;;;;;;;1.22;1.10;;;;;;;2.80;79.84;100856.87;1710751;84;21066;-59
2023/03/17 05:56:35;;;;;;;1.77;1.47;;;;;;;2.84;79.94;100869.62;1710783;84;21068;-60
2023/03/17 05:59:09;;;;;;;3.15;1.60;;;;;;;2.81;79.92;100872.11;1710801;84;21087;-60
2023/03/17 06:01:42;;;;;;;2.95;1.32;;;;;;;2.79;80.03;100874.09;1709754;84;21118;-59
2023/03/17 06:04:12;;;;;;;1.95;1.00;;;;;;;2.82;80.04;100871.12;1710950;84;21090;-59
2023/03/17 06:06:41;;;;;;;1.37;1.10;;;;;;;2.82;79.99;100875.18;1710724;84;21079;-60
2023/03/17 06:09:13;;;;;;;2.00;1.27;;;;;;;2.81;80.05;100874.82;1710484;84;21455;-58
2023/03/17 06:11:43;;;;;;;2.98;1.30;;;;;;;2.81;80.18;100869.41;1710913;84;21042;-59
2023/03/17 06:14:14;;;;;;;3.75;2.08;;;;;;;2.78;80.35;100878.30;1710699;83;21485;-56
2023/03/17 06:16:45;;;;;;;2.00;1.42;;;;;;;2.76;80.49;100877.08;1710678;83;21054;-59
2023/03/17 06:19:14;;;;;;;2.75;1.40;;;;;;;2.75;80.65;100876.72;1710691;84;21074;-58
2023/03/17 06:21:45;;;;;;;1.72;1.00;;;;;;;2.78;80.80;100883.70;1710813;83;21050;-59
2023/03/17 06:24:14;;;;;;;2.70;1.35;;;;;;;2.80;80.77;100885.28;1710841;84;21033;-59
2023/03/17 06:26:45;;;;;;;2.50;1.60;;;;;;;2.83;80.85;100888.21;1710730;83;21081;-60
2023/03/17 06:29:15;;;;;;;9.50;5.00;;;;;;;2.83;80.97;100890.42;1710914;84;21072;-59
2023/03/17 06:31:49;;;;;;;4.00;1.92;;;;;;;2.85;81.06;100889.79;1710732;84;21122;-59
2023/03/17 06:34:17;;;;;;;2.58;1.50;;;;;;;2.84;81.01;100892.13;1710895;84;21059;-59
2023/03/17 06:36:47;;;;;;;3.25;1.75;;;;;;;2.82;80.97;100894.13;1757139;81;21053;-60
2023/03/17 06:39:18;;;;;;;2.00;1.10;;;;;;;2.83;81.08;100899.03;1757050;82;21434;-60
2023/03/17 06:41:47;;;;;;;1.80;1.22;;;;;;;2.83;81.08;100894.98;1757041;81;21078;-60
2023/03/17 06:44:16;;;;;;;2.00;1.27;;;;;;;2.83;81.04;100894.48;1757065;82;20991;-60
2023/03/17 06:46:46;;;;;;;2.10;1.50;;;;;;;2.85;81.12;100906.03;1757164;82;20982;-59
2023/03/17 06:49:15;;;;;;;3.30;1.40;;;;;;;2.87;81.09;100901.83;1757088;82;21014;-58
2023/03/17 06:52:08;;;;;;;3.22;1.40;;;;;;;2.89;81.00;100912.52;1692420;84;21062;-61
2023/03/17 06:54:38;;;;;;;2.37;1.80;;;;;;;2.89;80.89;100913.88;1600482;89;21493;-59
2023/03/17 06:57:08;;;;;;;2.22;1.20;;;;;;;2.88;80.97;100902.69;1600886;90;21065;-61
2023/03/17 06:59:39;;;;;;;1.98;1.27;;;;;;;2.91;80.96;100888.39;1600786;90;21562;-59
2023/03/17 07:02:10;;;;;;;1.85;1.40;;;;;;;2.93;80.80;100899.08;1600725;90;21160;-59
2023/03/17 07:04:39;;;;;;;2.60;1.47;;;;;;;2.94;80.80;100900.79;1600588;89;21165;-59
2023/03/17 07:07:09;;;;;;;2.58;1.45;;;;;;;2.95;80.80;100905.21;1600719;89;21085;-60
2023/03/17 07:09:39;;;;;;;2.95;1.42;;;;;;;2.96;80.66;100903.72;1621956;86;21042;-61
2023/03/17 07:12:09;;;;;;;2.02;1.50;;;;;;;2.97;80.59;100904.08;1657329;86;21078;-62
2023/03/17 07:14:39;;;;;;;3.60;1.67;;;;;;;2.98;80.38;100913.06;1657441;86;21130;-60
2023/03/17 07:17:11;;;;;;;2.92;1.95;;;;;;;2.94;80.32;100911.12;1657170;86;21058;-59
2023/03/17 07:19:42;;;;;;;2.10;1.45;;;;;;;2.94;80.22;100917.89;1657140;85;21082;-60
2023/03/17 07:22:12;;;;;;;2.33;1.52;;;;;;;2.94;80.30;100913.83;1657119;86;21081;-60
2023/03/17 07:24:43;;;;;;;2.25;1.70;;;;;;;2.94;80.42;100910.27;1657154;86;21051;-59
2023/03/17 07:27:13;;;;;;;2.00;1.52;;;;;;;2.92;80.44;100916.31;1657182;86;21046;-60
2023/03/17 07:29:42;;;;;;;3.42;1.57;;;;;;;2.93;80.42;100917.53;1657135;86;21062;-59
2023/03/17 07:32:11;;;;;;;1.62;1.20;;;;;;;2.94;80.46;100917.03;1657259;86;21374;-59
2023/03/17 07:34:40;;;;;;;3.00;1.57;;;;;;;2.95;80.34;100920.09;1657107;86;21058;-59
2023/03/17 07:37:11;;;;;;;2.98;1.60;;;;;;;2.99;80.37;100925.59;1657312;86;21043;-59
2023/03/17 07:39:40;;;;;;;2.50;1.60;;;;;;;3.03;80.42;100925.19;1657213;86;21515;-60
2023/03/17 07:42:14;;;;;;;1.85;1.65;;;;;;;3.07;80.29;100929.34;1657172;86;21114;-61
2023/03/17 07:44:46;;;;;;;4.30;1.75;;;;;;;3.07;80.09;100925.77;1636745;86;21084;-60
2023/03/17 07:47:18;;;;;;;4.22;2.22;;;;;;;3.07;80.04;100924.42;1657386;86;21086;-59
2023/03/17 07:49:49;;;;;;;2.52;1.52;;;;;;;3.10;80.07;100929.06;1657230;86;21494;-60
2023/03/17 07:52:18;;;;;;;3.17;1.30;;;;;;;3.12;79.77;100923.52;1657506;86;21023;-61
2023/03/17 07:54:50;;;;;;;3.50;1.52;;;;;;;3.12;79.57;100928.92;1657168;85;21090;-61
2023/03/17 07:57:21;;;;;;;3.02;1.67;;;;;;;3.11;79.61;100930.78;1657184;86;21122;-60
2023/03/17 07:59:53;;;;;;;5.03;2.35;;;;;;;3.12;79.61;100941.11;1657300;86;21074;-61
2023/03/17 08:02:23;;;;;;;5.65;2.17;;;;;;;3.12;79.60;100931.14;1657242;86;21094;-60
2023/03/17 08:04:53;;;;;;;3.42;1.87;;;;;;;3.15;79.62;100938.13;1657141;86;21054;-61
2023/03/17 08:07:22;;;;;;;5.53;1.62;;;;;;;3.18;79.55;100941.42;1657113;86;21057;-60
2023/03/17 08:09:52;;;;;;;2.30;1.35;;;;;;;3.19;79.41;100944.98;1657443;86;21390;-61
2023/03/17 08:12:24;;;;;;;4.70;2.20;;;;;;;3.19;79.26;100949.05;1657243;86;21118;-60
2023/03/17 08:14:54;;;;;;;3.65;1.32;;;;;;;3.18;79.12;100948.69;1657370;86;21478;-61
2023/03/17 08:17:27;;;;;;;3.12;1.55;;;;;;;3.17;79.10;100946.47;1657332;86;21051;-60
2023/03/17 08:19:57;;;;;;;4.58;1.92;;;;;;;3.19;79.23;100950.40;1657131;86;21058;-60
2023/03/17 08:22:28;;;;;;;2.65;1.50;;;;;;;3.20;79.23;100950.76;1657139;86;21071;-59
2023/03/17 08:24:57;;;;;;;5.97;2.22;;;;;;;3.23;79.19;100952.34;1657238;86;21054;-60
2023/03/17 08:27:27;;;;;;;3.60;1.85;;;;;;;3.23;79.29;100957.25;1657347;86;21042;-60
2023/03/17 08:29:57;;;;;;;4.12;1.30;;;;;;;3.22;79.07;100962.31;1657464;86;21046;-60
2023/03/17 08:32:26;;;;;;;6.30;1.72;;;;;;;3.21;78.92;100955.18;1657186;86;21477;-62
2023/03/17 08:34:57;;;;;;;2.33;1.20;;;;;;;3.24;79.00;100960.82;1657125;86;21039;-59
2023/03/17 08:37:28;;;;;;;1.35;1.15;;;;;;;3.26;78.94;100961.58;1657364;86;21495;-61
2023/03/17 08:39:59;;;;;;;1.82;1.30;;;;;;;3.23;78.88;100964.03;1657286;86;21039;-60
2023/03/17 08:42:29;;;;;;;6.05;1.67;;;;;;;3.23;79.00;100961.31;1657397;86;21046;-61
2023/03/17 08:44:59;;;;;;;3.75;1.60;;;;;;;3.26;79.02;100970.55;1657408;86;21046;-60
2023/03/17 08:47:30;;;;;;;6.42;1.50;;;;;;;3.27;79.05;100968.20;1657134;86;21078;-60
2023/03/17 08:49:59;;;;;;;12.15;1.95;;;;;;;3.28;78.84;100970.41;1657120;86;21089;-62
2023/03/17 08:52:31;;;;;;;1.90;1.22;;;;;;;3.24;78.63;100968.45;1657346;86;21506;-58
2023/03/17 08:55:02;;;;;;;2.60;1.50;;;;;;;3.24;78.85;100966.23;1656154;86;21083;-61
2023/03/17 08:57:32;;;;;;;3.20;1.65;;;;;;;3.23;78.92;100970.80;1624155;86;21060;-61
2023/03/17 09:00:05;;;;;;;5.00;1.70;;;;;;;3.23;78.97;100970.80;1667811;85;21047;-61
2023/03/17 09:02:34;;;;;;;3.67;1.57;;;;;;;3.24;78.96;100981.98;1677757;85;21063;-60
2023/03/17 09:05:06;;;;;;;7.92;1.60;;;;;;;3.30;79.74;100980.62;1635344;87;21085;-65
2023/03/17 09:07:36;;;;;;;4.75;1.45;;;;;;;3.33;79.57;100978.49;1649014;87;21040;-61
2023/03/17 09:10:09;;;;;;;7.72;1.65;;;;;;;3.35;79.35;100975.15;1617314;87;21069;-60
2023/03/17 09:12:40;;;;;;;3.62;1.40;;;;;;;3.38;79.29;100980.79;1575996;91;21063;-62
2023/03/17 09:15:11;;;;;;;4.42;1.60;;;;;;;3.40;79.12;100985.57;1578043;90;21063;-61
2023/03/17 09:17:42;;;;;;;2.80;1.50;;;;;;;3.40;79.10;100983.72;1578160;90;21116;-59
2023/03/17 09:20:13;;;;;;;8.38;2.02;;;;;;;3.42;78.97;100976.31;1577443;90;21187;-61
2023/03/17 09:22:43;;;;;;;7.28;1.90;;;;;;;3.44;79.10;100982.95;1576219;90;21144;-61
2023/03/17 09:25:15;;;;;;;3.75;1.30;;;;;;;3.42;78.96;100984.44;1575747;90;21120;-62
2023/03/17 09:27:45;;;;;;;3.27;1.40;;;;;;;3.42;78.91;100995.27;1575453;90;21085;-60
2023/03/17 09:30:19;;;;;;;3.47;1.17;;;;;;;3.43;78.83;100986.66;1603686;85;21051;-62
2023/03/17 09:32:45;;;;;;;2.45;1.57;;;;;;;3.44;78.79;100993.78;1677764;85;21032;-61
2023/03/17 09:35:15;;;;;;;5.70;1.90;;;;;;;3.41;78.76;100984.08;1677868;85;21059;-62
2023/03/17 09:37:46;;;;;;;5.20;2.20;;;;;;;3.40;78.75;100993.20;1677826;85;21541;-61
2023/03/17 09:40:21;;;;;;;7.12;2.20;;;;;;;3.39;78.85;100992.84;1618833;87;21489;-62
2023/03/17 09:43:19;;;;;;;6.67;1.65;;;;;;;3.41;78.94;101001.69;1677633;85;21071;-61
2023/03/17 09:45:51;;;;;;;5.33;1.75;;;;;;;3.46;79.22;101001.28;1678099;85;21345;-61
2023/03/17 09:48:49;;;;;;;9.25;2.05;;;;;;;3.53;79.39;101000.23;1677744;85;21503;-61
2023/03/17 09:51:20;;;;;;;6.15;1.80;;;;;;;3.58;79.31;101002.03;1677709;85;21008;-61
2023/03/17 09:54:14;;;;;;;7.15;1.67;;;;;;;3.63;79.18;101006.53;1676089;85;21094;-61
2023/03/17 09:56:48;;;;;;;5.10;1.98;;;;;;;3.66;79.09;101009.83;1673255;86;21114;-61
2023/03/17 09:59:33;;;;;;;3.72;1.72;;;;;;;3.70;78.94;101007.20;1640191;87;21061;-61
2023/03/17 10:02:02;;;;;;;11.12;2.27;;;;;;;3.73;78.80;101010.13;1624045;88;21132;-60
2023/03/17 10:04:32;;;;;;;8.90;1.70;;;;;;;3.76;78.52;101008.49;1606129;87;21129;-62
2023/03/17 10:07:02;;;;;;;4.08;1.40;;;;;;;3.78;78.17;101013.27;1590033;89;21113;-61
2023/03/17 10:09:39;;;;;;;5.30;1.92;;;;;;;3.77;78.03;101011.06;1630191;88;21054;-60
2023/03/17 10:12:16;;;;;;;10.38;2.52;;;;;;;3.78;78.31;101005.14;1631769;88;21090;-60
2023/03/17 10:14:58;;;;;;;5.80;1.77;;;;;;;3.77;78.09;101009.71;1630292;88;21047;-61
2023/03/17 10:17:38;;;;;;;4.60;1.40;;;;;;;3.75;77.73;101022.55;1629617;88;21031;-62
2023/03/17 10:20:14;;;;;;;3.98;1.52;;;;;;;3.70;77.59;101015.33;1629057;86;21079;-61
2023/03/17 10:22:48;;;;;;;7.08;1.75;;;;;;;3.69;77.65;101012.75;1630180;88;21083;-61
2023/03/17 10:25:21;;;;;;;3.62;1.70;;;;;;;3.70;77.69;101013.11;1630247;88;21141;-61
2023/03/17 10:28:00;;;;;;;10.55;1.95;;;;;;;3.70;77.66;101019.39;1630182;88;21146;-59
2023/03/17 10:30:32;;;;;;;12.03;2.20;;;;;;;3.70;77.83;101015.82;1610908;88;21142;-59
2023/03/17 10:33:05;;;;;;;4.58;1.67;;;;;;;3.69;77.76;101020.89;1630082;88;21062;-62
2023/03/17 10:35:39;;;;;;;2.50;1.50;;;;;;;3.71;77.86;101027.02;1630205;88;21118;-60
2023/03/17 10:38:18;;;;;;;4.95;1.85;;;;;;;3.72;77.96;101015.19;1628773;88;21089;-61
2023/03/17 10:40:57;;;;;;;4.78;1.67;;;;;;;3.74;77.90;101011.84;1629532;88;21101;-59
2023/03/17 10:43:43;;;;;;;2.90;1.15;;;;;;;3.77;77.89;101026.47;1630070;88;21117;-60
2023/03/17 10:46:24;;;;;;;6.25;1.45;;;;;;;3.76;77.64;101028.82;1629872;88;21126;-60
2023/03/17 10:48:59;;;;;;;1.70;1.00;;;;;;;3.77;77.62;101025.11;1629919;88;21102;-61
2023/03/17 10:51:35;;;;;;;4.15;1.20;;;;;;;3.78;77.40;101029.04;1603617;88;21071;-63
2023/03/17 10:54:19;;;;;;;3.08;1.40;;;;;;;3.78;77.63;101024.12;1629961;88;21118;-61
2023/03/17 10:56:49;;;;;;;8.08;1.87;;;;;;;3.79;77.54;101018.56;1629682;88;21133;-62
2023/03/17 10:59:27;;;;;;;6.55;1.35;;;;;;;3.81;77.39;101024.70;1630061;87;21006;-61
2023/03/17 11:01:58;;;;;;;5.35;1.47;;;;;;;3.85;77.43;101028.48;1630062;88;21117;-62
2023/03/17 11:04:37;;;;;;;4.55;1.70;;;;;;;3.87;77.30;101028.70;1638473;86;21551;-63
2023/03/17 11:07:09;;;;;;;4.00;1.40;;;;;;;3.88;77.25;101029.56;1656787;86;21114;-62
2023/03/17 11:09:38;;;;;;;4.65;1.37;;;;;;;3.87;77.09;101037.33;1656869;86;21455;-62
2023/03/17 11:12:25;;;;;;;4.47;1.30;;;;;;;3.85;77.02;101036.13;1657008;85;21038;-61
2023/03/17 11:15:00;;;;;;;6.83;1.75;;;;;;;3.85;77.14;101036.13;1656828;86;21086;-60
2023/03/17 11:17:46;;;;;;;1.85;1.20;;;;;;;3.88;77.04;101035.84;1656890;86;21089;-62
2023/03/17 11:20:49;;;;;;;3.35;1.40;;;;;;;3.89;76.92;101033.98;1657032;86;21121;-62
2023/03/17 11:23:29;;;;;;;4.58;1.70;;;;;;;3.88;76.83;101033.63;1656903;86;21060;-62
2023/03/17 11:26:23;;;;;;;3.85;1.47;;;;;;;3.88;76.86;101039.91;1656741;86;21043;-61
2023/03/17 11:29:23;;;;;;;3.90;1.50;;;;;;;3.90;76.92;101034.34;1656730;86;21071;-64
2023/03/17 11:32:29;;;;;;;3.35;1.50;;;;;;;3.93;76.91;101037.67;1656754;86;21508;-61
2023/03/17 11:35:22;;;;;;;9.78;1.95;;;;;;;3.97;76.93;101030.97;1656937;86;21458;-62
2023/03/17 11:38:00;;;;;;;7.10;1.60;;;;;;;3.95;76.67;101038.39;1633795;86;21553;-62
2023/03/17 11:40:33;;;;;;;5.62;1.70;;;;;;;3.95;77.45;101041.09;1656909;86;21130;-62
2023/03/17 11:43:20;;;;;;;5.25;1.85;;;;;;;4.08;78.27;101032.20;1656672;86;21074;-60
2023/03/17 11:46:12;;;;;;;2.67;1.40;;;;;;;4.13;77.57;101039.42;1657105;86;21022;-60
2023/03/17 11:49:19;;;;;;;2.65;1.60;;;;;;;4.12;76.77;101039.55;1656843;86;21090;-61
2023/03/17 11:52:20;;;;;;;3.80;1.40;;;;;;;4.07;76.42;101039.12;1631339;88;21034;-59
2023/03/17 11:54:55;;;;;;;3.75;1.40;;;;;;;4.02;76.36;101047.67;1629687;87;21058;-60
2023/03/17 11:57:43;;;;;;;5.25;1.50;;;;;;;3.96;76.38;101054.16;1600397;90;21122;-62
2023/03/17 12:00:33;;;;;;;5.90;1.75;;;;;;;3.94;76.38;101054.80;1600494;90;21541;-61